createdAt,value
2022-08-14T00:02:01.637Z,101187.50
2022-08-14T00:04:34.644Z,101183.97
2022-08-14T00:07:14.158Z,101167.66
2022-08-14T00:10:01.963Z,101182.13
2022-08-14T00:12:33.739Z,101171.34
2022-08-14T00:15:13.283Z,101172.31
2022-08-14T00:17:47.152Z,101153.50
2022-08-14T00:20:23.888Z,101175.00
2022-08-14T00:22:57.860Z,101178.72
2022-08-14T00:25:41.463Z,101171.59
2022-08-14T00:28:15.339Z,101163.44
2022-08-14T00:30:46.041Z,101160.59
2022-08-14T00:33:17.261Z,101146.84
2022-08-14T00:36:33.803Z,101175.00
2022-08-14T00:38:34.907Z,101175.88
2022-08-14T00:41:04.630Z,101165.97
2022-08-14T00:43:32.800Z,101171.34
2022-08-14T00:46:05.301Z,101171.34
2022-08-14T00:48:38.631Z,101175.00
2022-08-14T00:51:11.405Z,101175.00
2022-08-14T00:53:40.117Z,101171.34
2022-08-14T00:56:15.431Z,101085.84
2022-08-14T00:58:45.166Z,101114.72
2022-08-14T01:01:18.842Z,101134.53
2022-08-14T01:03:52.822Z,101156.91
2022-08-14T01:06:21.537Z,101163.97
2022-08-14T01:08:51.114Z,101160.28
2022-08-14T01:11:31.421Z,101137.88
2022-08-14T01:14:00.872Z,101160.28
2022-08-14T01:16:31.643Z,101155.91
2022-08-14T01:19:19.831Z,101156.91
2022-08-14T01:21:53.411Z,101105.94
2022-08-14T01:24:30.227Z,101147.50
2022-08-14T01:27:04.955Z,101150.66
2022-08-14T01:29:58.521Z,101156.91
2022-08-14T01:32:25.886Z,101158.84
2022-08-14T01:35:19.829Z,101155.19
2022-08-14T01:37:56.205Z,101158.84
2022-08-14T01:40:36.224Z,101155.28
2022-08-14T01:43:18.788Z,101156.16
2022-08-14T01:45:57.883Z,101153.47
2022-08-14T01:48:37.601Z,101146.38
2022-08-14T01:51:20.038Z,101142.69
2022-08-14T01:53:54.957Z,101142.69
2022-08-14T01:56:37.456Z,101097.84
2022-08-14T01:59:09.696Z,101140.75
2022-08-14T02:01:41.763Z,101140.75
2022-08-14T02:04:40.923Z,101134.91
2022-08-14T02:06:59.614Z,101109.84
2022-08-14T02:09:31.967Z,101124.56
2022-08-14T02:11:59.984Z,101065.72
2022-08-14T02:14:32.122Z,101129.97
2022-08-14T02:17:01.307Z,101129.97
2022-08-14T02:19:32.279Z,101126.25
2022-08-14T02:22:03.497Z,101131.66
2022-08-14T02:24:39.043Z,101137.91
2022-08-14T02:28:25.153Z,101133.34
2022-08-14T02:30:02.037Z,101129.97
2022-08-14T02:32:36.525Z,101125.13
2022-08-14T02:35:10.402Z,101137.91
2022-08-14T02:37:48.073Z,101124.56
2022-08-14T02:40:19.085Z,101114.06
2022-08-14T02:42:54.727Z,101121.03
2022-08-14T02:45:33.416Z,101117.47
2022-08-14T02:48:10.130Z,101115.75
2022-08-14T02:50:39.268Z,101117.47
2022-08-14T02:53:07.605Z,101113.81
2022-08-14T02:55:40.300Z,101102.16
2022-08-14T02:58:08.646Z,101112.94
2022-08-14T03:00:39.983Z,101100.44
2022-08-14T03:03:08.804Z,101097.63
2022-08-14T03:05:41.191Z,101106.69
2022-08-14T03:08:11.138Z,101101.31
2022-08-14T03:10:48.745Z,101101.31
2022-08-14T03:13:19.240Z,101107.56
2022-08-14T03:15:55.105Z,101094.78
2022-08-14T03:18:31.372Z,101100.75
2022-08-14T03:21:03.448Z,101048.97
2022-08-14T03:23:37.769Z,101098.19
2022-08-14T03:26:13.127Z,101104.72
2022-08-14T03:28:48.668Z,101104.72
2022-08-14T03:31:20.146Z,101104.00
2022-08-14T03:33:51.837Z,101088.00
2022-08-14T03:37:37.979Z,101105.72
2022-08-14T03:39:22.717Z,101092.81
2022-08-14T03:41:55.317Z,101088.41
2022-08-14T03:45:27.809Z,101101.31
2022-08-14T03:47:15.379Z,101095.91
2022-08-14T03:49:44.791Z,101104.97
2022-08-14T03:52:38.325Z,101101.31
2022-08-14T03:55:08.180Z,101095.06
2022-08-14T03:57:38.788Z,101101.31
2022-08-14T04:00:40.252Z,101106.69
2022-08-14T04:03:01.675Z,101097.03
2022-08-14T04:05:38.134Z,101104.97
2022-08-14T04:08:30.249Z,101084.00
2022-08-14T04:11:01.007Z,101089.66
2022-08-14T04:13:32.016Z,101031.69
2022-08-14T04:16:05.123Z,101084.44
2022-08-14T04:18:34.887Z,101068.44
2022-08-14T04:21:04.009Z,101087.13
2022-08-14T04:23:33.245Z,101082.72
2022-08-14T04:26:03.114Z,101067.06
2022-08-14T04:29:05.396Z,101083.44
2022-08-14T04:31:24.831Z,101081.75
2022-08-14T04:34:04.152Z,101085.41
2022-08-14T04:36:53.714Z,101080.03
2022-08-14T04:39:46.191Z,101084.88
2022-08-14T04:42:32.703Z,101004.28
2022-08-14T04:45:02.038Z,101076.94
2022-08-14T04:47:53.683Z,101079.63
2022-08-14T04:50:37.957Z,101076.94
2022-08-14T04:53:11.028Z,101046.41
2022-08-14T04:55:39.627Z,101072.28
2022-08-14T04:58:21.714Z,101080.59
2022-08-14T05:01:00.374Z,101074.94
2022-08-14T05:03:31.479Z,101000.31
2022-08-14T05:06:03.103Z,101045.81
2022-08-14T05:08:50.707Z,101072.94
2022-08-14T05:11:20.474Z,101074.25
2022-08-14T05:16:39.045Z,101077.47
2022-08-14T05:19:18.319Z,101082.03
2022-08-14T05:22:00.933Z,101047.78
2022-08-14T05:24:43.707Z,101069.53
2022-08-14T05:27:11.703Z,101018.69
2022-08-14T05:29:40.721Z,101067.84
2022-08-14T05:32:12.652Z,101062.47
2022-08-14T05:34:40.922Z,101064.16
2022-08-14T05:37:15.466Z,101069.53
2022-08-14T05:39:44.364Z,101062.47
2022-08-14T05:42:22.357Z,101064.16
2022-08-14T05:44:56.027Z,101059.78
2022-08-14T05:47:28.618Z,101067.84
2022-08-14T05:50:02.911Z,101051.69
2022-08-14T05:52:38.408Z,101066.16
2022-08-14T05:55:09.414Z,100989.25
2022-08-14T05:57:47.573Z,101054.53
2022-08-14T06:00:28.177Z,101053.69
2022-08-14T06:02:58.519Z,101046.31
2022-08-14T06:05:29.537Z,101040.91
2022-08-14T06:07:58.605Z,101042.59
2022-08-14T06:10:28.306Z,101037.22
2022-08-14T06:12:57.972Z,101003.31
2022-08-14T06:15:30.029Z,101031.00
2022-08-14T06:18:01.780Z,101028.75
2022-08-14T06:20:30.685Z,101041.78
2022-08-14T06:22:59.181Z,101043.47
2022-08-14T06:25:27.942Z,101033.53
2022-08-14T06:27:58.090Z,101038.94
2022-08-14T06:30:46.077Z,101028.91
2022-08-14T06:33:18.353Z,101030.84
2022-08-14T06:35:47.326Z,101035.22
2022-08-14T06:38:19.697Z,101034.53
2022-08-14T06:40:51.621Z,101031.84
2022-08-14T06:43:28.347Z,101025.47
2022-08-14T06:45:57.925Z,101031.84
2022-08-14T06:48:29.779Z,100948.44
2022-08-14T06:51:00.687Z,101030.16
2022-08-14T06:53:28.653Z,101022.06
2022-08-14T06:56:01.023Z,101022.06
2022-08-14T06:58:32.080Z,100858.31
2022-08-14T07:01:26.723Z,101024.75
2022-08-14T07:04:24.177Z,101009.50
2022-08-14T07:06:55.636Z,101015.97
2022-08-14T07:09:28.238Z,101017.69
2022-08-14T07:12:09.762Z,100999.03
2022-08-14T07:15:01.345Z,101024.75
2022-08-14T07:17:31.915Z,101020.38
2022-08-14T07:20:04.305Z,101024.75
2022-08-14T07:22:33.103Z,101021.22
2022-08-14T07:25:18.220Z,101003.28
2022-08-14T07:27:47.916Z,101022.78
2022-08-14T07:30:34.011Z,101021.78
2022-08-14T07:33:03.175Z,101019.06
2022-08-14T07:35:43.255Z,101013.28
2022-08-14T07:38:24.475Z,101019.06
2022-08-14T07:40:53.310Z,101021.78
2022-08-14T07:43:23.056Z,101024.47
2022-08-14T07:45:53.774Z,100965.44
2022-08-14T07:48:25.008Z,101034.38
2022-08-14T07:51:03.065Z,101046.00
2022-08-14T07:53:40.489Z,101040.63
2022-08-14T07:56:44.492Z,101031.31
2022-08-14T07:58:58.942Z,101047.00
2022-08-14T08:01:30.979Z,101044.31
2022-08-14T08:04:00.426Z,101039.75
2022-08-14T08:06:31.259Z,101031.84
2022-08-14T08:09:02.826Z,101039.75
2022-08-14T08:11:34.824Z,101033.53
2022-08-14T08:14:10.830Z,101038.94
2022-08-14T08:16:51.004Z,101023.38
2022-08-14T08:19:19.572Z,101025.63
2022-08-14T08:21:48.981Z,101021.69
2022-08-14T08:24:18.684Z,100969.50
2022-08-14T08:26:50.260Z,101009.75
2022-08-14T08:29:22.539Z,101022.47
2022-08-14T08:32:01.827Z,101019.50
2022-08-14T08:34:45.406Z,101032.91
2022-08-14T08:37:16.060Z,101033.78
2022-08-14T08:40:01.973Z,101026.25
2022-08-14T08:42:41.301Z,101023.00
2022-08-14T08:45:12.473Z,101026.41
2022-08-14T08:47:41.327Z,101002.59
2022-08-14T08:50:23.142Z,100959.63
2022-08-14T08:53:03.856Z,101019.59
2022-08-14T08:55:35.897Z,101020.59
2022-08-14T08:58:16.111Z,101000.94
2022-08-14T09:00:50.108Z,101008.00
2022-08-14T09:03:24.547Z,101019.88
2022-08-14T09:05:54.858Z,100989.97
2022-08-14T09:08:31.632Z,101018.19
2022-08-14T09:11:19.930Z,100993.59
2022-08-14T09:13:51.036Z,100989.38
2022-08-14T09:16:23.664Z,100964.75
2022-08-14T09:18:53.899Z,101007.72
2022-08-14T09:21:24.009Z,100977.47
2022-08-14T09:24:29.259Z,101000.66
2022-08-14T09:26:49.283Z,100994.13
2022-08-14T09:29:22.898Z,100990.75
2022-08-14T09:31:57.378Z,101006.03
2022-08-14T09:34:58.500Z,100993.56
2022-08-14T09:37:40.167Z,100995.53
2022-08-14T09:40:22.282Z,100999.50
2022-08-14T09:42:59.656Z,101003.06
2022-08-14T09:45:39.971Z,101007.13
2022-08-14T09:48:30.041Z,101005.44
2022-08-14T09:54:12.716Z,100997.22
2022-08-14T09:56:31.135Z,100955.41
2022-08-14T09:59:15.444Z,100996.50
2022-08-14T10:01:46.269Z,101002.03
2022-08-14T10:04:36.691Z,100998.34
2022-08-14T10:07:10.133Z,100978.53
2022-08-14T10:09:59.440Z,100989.28
2022-08-14T10:12:50.057Z,100988.41
2022-08-14T10:15:23.958Z,100980.50
2022-08-14T10:18:04.001Z,100965.91
2022-08-14T10:20:40.749Z,100975.09
2022-08-14T10:23:22.152Z,100971.41
2022-08-14T10:25:53.368Z,100972.41
2022-08-14T10:29:03.865Z,100970.72
2022-08-14T10:31:25.615Z,100917.16
2022-08-14T10:34:03.315Z,100964.31
2022-08-14T10:36:35.234Z,100925.03
2022-08-14T10:39:17.085Z,100948.16
2022-08-14T10:41:54.035Z,100948.16
2022-08-14T10:44:29.888Z,100944.47
2022-08-14T10:47:39.281Z,100926.47
2022-08-14T10:49:59.809Z,100953.56
2022-08-14T10:52:34.477Z,100948.16
2022-08-14T10:55:14.188Z,100930.88
2022-08-14T10:57:51.220Z,100946.78
2022-08-14T11:00:30.445Z,100948.63
2022-08-14T11:03:09.750Z,100907.75
2022-08-14T11:05:43.907Z,100907.16
2022-08-14T11:08:13.919Z,100933.44
2022-08-14T11:10:45.799Z,100939.69
2022-08-14T11:13:18.820Z,100932.47
2022-08-14T11:15:49.235Z,100895.00
2022-08-14T11:18:20.414Z,100937.97
2022-08-14T11:20:59.876Z,100876.44
2022-08-14T11:23:38.418Z,100937.97
2022-08-14T11:26:10.478Z,100937.97
2022-08-14T11:28:48.189Z,100931.72
2022-08-14T11:31:24.824Z,100920.13
2022-08-14T11:33:57.974Z,100923.78
2022-08-14T11:36:56.964Z,100930.03
2022-08-14T11:39:22.869Z,100918.41
2022-08-14T11:42:55.354Z,100904.72
2022-08-14T11:44:53.467Z,100918.41
2022-08-14T11:47:25.844Z,100911.34
2022-08-14T11:49:54.993Z,100927.50
2022-08-14T11:52:22.950Z,100929.19
2022-08-14T11:55:00.555Z,100909.25
2022-08-14T11:57:30.928Z,100918.41
2022-08-14T12:00:03.150Z,100916.72
2022-08-14T12:03:01.251Z,100911.34
2022-08-14T12:05:43.061Z,100917.72
2022-08-14T12:08:13.458Z,100890.31
2022-08-14T12:10:44.165Z,100917.72
2022-08-14T12:13:17.554Z,100910.47
2022-08-14T12:15:51.402Z,100909.59
2022-08-14T12:18:31.596Z,100864.38
2022-08-14T12:21:15.809Z,100884.09
2022-08-14T12:23:51.155Z,100872.25
2022-08-14T12:26:39.957Z,100890.59
2022-08-14T12:29:12.996Z,100890.59
2022-08-14T12:31:44.707Z,100888.91
2022-08-14T12:34:20.412Z,100888.91
2022-08-14T12:36:51.350Z,100884.38
2022-08-14T12:39:21.057Z,100825.22
2022-08-14T12:41:56.946Z,100883.50
2022-08-14T12:44:31.392Z,100879.81
2022-08-14T12:47:06.291Z,100857.78
2022-08-14T12:49:35.707Z,100879.81
2022-08-14T12:52:06.564Z,100856.09
2022-08-14T12:54:54.734Z,100817.38
2022-08-14T12:57:38.296Z,100860.28
2022-08-14T13:00:22.838Z,100854.88
2022-08-14T13:02:55.206Z,100835.59
2022-08-14T13:05:28.372Z,100845.78
2022-08-14T13:07:57.386Z,100842.25
2022-08-14T13:10:46.571Z,100786.22
2022-08-14T13:13:17.973Z,100833.34
2022-08-14T13:15:48.246Z,100827.94
2022-08-14T13:18:26.895Z,100780.75
2022-08-14T13:21:01.198Z,100803.59
2022-08-14T13:23:36.194Z,100804.38
2022-08-14T13:26:05.000Z,100813.47
2022-08-14T13:28:41.265Z,100806.41
2022-08-14T13:31:29.922Z,100803.72
2022-08-14T13:34:00.265Z,100806.41
2022-08-14T13:36:51.628Z,100792.22
2022-08-14T13:39:20.606Z,100793.91
2022-08-14T13:41:55.723Z,100793.91
2022-08-14T13:44:28.779Z,100788.53
2022-08-14T13:46:58.391Z,100789.38
2022-08-14T13:49:29.043Z,100769.91
2022-08-14T13:51:59.808Z,100788.53
2022-08-14T13:54:32.983Z,100780.75
2022-08-14T13:57:03.902Z,100778.44
2022-08-14T13:59:38.016Z,100773.22
2022-08-14T14:02:09.118Z,100706.69
2022-08-14T14:04:42.590Z,100771.38
2022-08-14T14:07:18.071Z,100778.44
2022-08-14T14:09:52.523Z,100707.44
2022-08-14T14:12:37.768Z,100763.31
2022-08-14T14:15:11.634Z,100743.47
2022-08-14T14:17:40.792Z,100720.69
2022-08-14T14:20:35.972Z,100694.69
2022-08-14T14:23:09.472Z,100752.53
2022-08-14T14:25:46.123Z,100741.75
2022-08-14T14:28:24.328Z,100719.72
2022-08-14T14:30:57.385Z,100732.41
2022-08-14T14:33:49.000Z,100731.97
2022-08-14T14:36:21.000Z,100730.44
2022-08-14T14:38:54.575Z,100663.63
2022-08-14T14:41:24.018Z,100729.25
2022-08-14T14:43:54.311Z,100734.66
2022-08-14T14:46:36.254Z,100728.88
2022-08-14T14:49:07.861Z,100703.56
2022-08-14T14:51:41.843Z,100733.34
2022-08-14T14:54:13.552Z,100701.88
2022-08-14T14:56:50.652Z,100736.06
2022-08-14T14:59:21.846Z,100725.28
2022-08-14T15:01:55.844Z,100730.66
2022-08-14T15:04:26.064Z,100682.97
2022-08-14T15:06:54.514Z,100728.94
2022-08-14T15:09:23.972Z,100710.34
2022-08-14T15:11:51.895Z,100725.28
2022-08-14T15:14:55.785Z,100728.94
2022-08-14T15:17:09.187Z,100719.88
2022-08-14T15:19:38.561Z,100718.88
2022-08-14T15:22:10.583Z,100719.88
2022-08-14T15:24:40.314Z,100715.16
2022-08-14T15:27:09.367Z,100717.84
2022-08-14T15:29:42.967Z,100666.19
2022-08-14T15:32:11.402Z,100662.75
2022-08-14T15:34:50.880Z,100698.03
2022-08-14T15:37:20.132Z,100697.16
2022-08-14T15:39:50.311Z,100705.09
2022-08-14T15:42:23.073Z,100703.41
2022-08-14T15:44:58.246Z,100647.28
2022-08-14T15:47:31.459Z,100639.50
2022-08-14T15:50:01.029Z,100651.34
2022-08-14T15:52:34.877Z,100679.38
2022-08-14T15:55:08.847Z,100689.25
2022-08-14T15:57:37.256Z,100682.16
2022-08-14T16:00:43.684Z,100690.25
2022-08-14T16:03:16.686Z,100691.25
2022-08-14T16:05:45.971Z,100675.06
2022-08-14T16:08:27.022Z,100677.75
2022-08-14T16:11:00.947Z,100669.69
2022-08-14T16:13:39.128Z,100671.72
2022-08-14T16:16:47.093Z,100664.63
2022-08-14T16:18:58.932Z,100629.13
2022-08-14T16:21:31.411Z,100644.66
2022-08-14T16:24:01.790Z,100570.38
2022-08-14T16:26:33.148Z,100645.69
2022-08-14T16:29:06.464Z,100626.47
2022-08-14T16:31:36.754Z,100662.31
2022-08-14T16:34:44.676Z,100658.59
2022-08-14T16:36:54.492Z,100619.41
2022-08-14T16:39:24.360Z,100596.59
2022-08-14T16:41:53.713Z,100650.50
2022-08-14T16:44:33.745Z,100654.91
2022-08-14T16:47:05.865Z,100646.13
2022-08-14T16:50:04.805Z,100651.53
2022-08-14T16:52:26.248Z,100644.47
2022-08-14T16:55:14.239Z,100648.13
2022-08-14T16:57:51.967Z,100638.00
2022-08-14T17:00:32.956Z,100634.59
2022-08-14T17:03:12.343Z,100650.16
2022-08-14T17:05:43.447Z,100645.59
2022-08-14T17:08:28.412Z,100646.47
2022-08-14T17:11:10.656Z,100646.47
2022-08-14T17:13:58.677Z,100651.84
2022-08-14T17:16:33.192Z,100649.31
2022-08-14T17:19:05.710Z,100642.09
2022-08-14T17:21:40.949Z,100643.91
2022-08-14T17:24:56.699Z,100601.97
2022-08-14T17:27:04.150Z,100643.06
2022-08-14T17:29:54.787Z,100556.28
2022-08-14T17:32:29.909Z,100619.09
2022-08-14T17:35:16.423Z,100639.38
2022-08-14T17:37:55.962Z,100634.00
2022-08-14T17:40:30.801Z,100608.63
2022-08-14T17:43:02.065Z,100627.22
2022-08-14T17:45:47.031Z,100574.84
2022-08-14T17:49:10.772Z,100634.00
2022-08-14T17:51:23.773Z,100600.19
2022-08-14T17:54:01.440Z,100628.63
2022-08-14T17:56:36.198Z,100634.00
2022-08-14T17:59:07.445Z,100634.00
2022-08-14T18:01:45.787Z,100626.53
2022-08-14T18:04:24.516Z,100637.69
2022-08-14T18:07:08.996Z,100637.69
2022-08-14T18:09:58.902Z,100603.25
2022-08-14T18:12:36.519Z,100627.75
2022-08-14T18:15:16.669Z,100625.50
2022-08-14T18:17:53.317Z,100629.75
2022-08-14T18:21:40.263Z,100549.50
2022-08-14T18:23:14.553Z,100634.00
2022-08-14T18:25:49.401Z,100626.91
2022-08-14T18:28:51.061Z,100608.97
2022-08-14T18:31:43.763Z,100633.16
2022-08-14T18:34:31.888Z,100602.72
2022-08-14T18:37:14.269Z,100609.66
2022-08-14T18:40:02.267Z,100622.53
2022-08-14T18:42:44.516Z,100627.75
2022-08-14T18:45:18.747Z,100626.91
2022-08-14T18:48:14.314Z,100620.13
2022-08-14T18:50:52.436Z,100632.28
2022-08-14T18:53:24.526Z,100612.00
2022-08-14T18:55:59.791Z,100626.91
2022-08-14T18:58:34.212Z,100626.91
2022-08-14T19:01:04.573Z,100621.50
2022-08-14T19:03:56.173Z,100628.63
2022-08-14T19:06:50.157Z,100576.22
2022-08-14T19:09:57.938Z,100632.28
2022-08-14T19:12:58.559Z,100623.53
2022-08-14T19:15:31.211Z,100623.53
2022-08-14T19:18:10.569Z,100610.63
2022-08-14T19:20:47.697Z,100610.69
2022-08-14T19:23:21.477Z,100626.25
2022-08-14T19:26:01.325Z,100539.91
2022-08-14T19:28:32.305Z,100617.44
2022-08-14T19:31:42.421Z,100621.69
2022-08-14T19:34:30.016Z,100617.31
2022-08-14T19:37:06.733Z,100612.78
2022-08-14T19:39:54.366Z,100570.22
2022-08-14T19:42:28.553Z,100557.66
2022-08-14T19:44:59.037Z,100603.69
2022-08-14T19:47:40.984Z,100607.06
2022-08-14T19:50:40.336Z,100575.28
2022-08-14T19:53:17.680Z,100610.75
2022-08-14T19:55:59.412Z,100613.28
2022-08-14T19:58:55.191Z,100607.06
2022-08-14T20:01:27.234Z,100605.34
2022-08-14T20:04:22.865Z,100602.00
2022-08-14T20:07:04.327Z,100596.63
2022-08-14T20:11:03.253Z,100592.06
2022-08-14T20:12:36.435Z,100585.84
2022-08-14T20:15:47.316Z,100578.75
2022-08-14T20:18:45.880Z,100567.97
2022-08-14T20:21:05.325Z,100569.69
2022-08-14T20:23:38.207Z,100569.69
2022-08-14T20:26:30.782Z,100542.66
2022-08-14T20:29:04.596Z,100567.66
2022-08-14T20:31:36.613Z,100523.91
2022-08-14T20:34:24.413Z,100557.72
2022-08-14T20:37:10.016Z,100565.97
2022-08-14T20:39:54.614Z,100564.94
2022-08-14T20:42:43.620Z,100567.66
2022-08-14T20:45:20.084Z,100561.28
2022-08-14T20:47:56.947Z,100561.19
2022-08-14T20:50:28.858Z,100562.25
2022-08-14T20:52:57.812Z,100563.97
2022-08-14T20:55:29.397Z,100558.59
2022-08-14T20:57:59.692Z,100560.25
2022-08-14T21:00:51.900Z,100560.25
2022-08-14T21:03:30.309Z,100554.88
2022-08-14T21:06:01.735Z,100503.22
2022-08-14T21:08:47.184Z,100553.84
2022-08-14T21:11:19.354Z,100549.50
2022-08-14T21:14:20.796Z,100544.09
2022-08-14T21:16:40.976Z,100544.09
2022-08-14T21:19:26.947Z,100534.25
2022-08-14T21:21:55.714Z,100546.78
2022-08-14T21:24:39.625Z,100532.91
2022-08-14T21:27:19.677Z,100544.09
2022-08-14T21:29:55.505Z,100545.78
2022-08-14T21:32:35.839Z,100537.19
2022-08-14T21:35:10.047Z,100506.94
2022-08-14T21:37:43.788Z,100520.63
2022-08-14T21:40:18.731Z,100539.56
2022-08-14T21:43:01.646Z,100539.56
2022-08-14T21:45:30.303Z,100533.31
2022-08-14T21:48:10.679Z,100529.63
2022-08-14T21:51:01.378Z,100536.88
2022-08-14T21:53:32.926Z,100491.13
2022-08-14T21:56:03.234Z,100523.41
2022-08-14T21:58:53.112Z,100518.84
2022-08-14T22:01:20.466Z,100513.44
2022-08-14T22:03:55.147Z,100403.47
2022-08-14T22:06:28.664Z,100513.44
2022-08-14T22:08:58.390Z,100509.78
2022-08-14T22:11:27.434Z,100495.09
2022-08-14T22:14:02.126Z,100504.38
2022-08-14T22:17:01.642Z,100499.00
2022-08-14T22:19:47.279Z,100496.31
2022-08-14T22:22:25.975Z,100510.59
2022-08-14T22:25:00.405Z,100507.31
2022-08-14T22:27:32.118Z,100551.16
2022-08-14T22:30:02.137Z,100527.53
2022-08-14T22:32:55.911Z,100550.19
2022-08-14T22:35:23.494Z,100537.19
2022-08-14T22:38:32.615Z,100512.72
2022-08-14T22:41:03.809Z,100529.63
2022-08-14T22:43:31.293Z,100533.31
2022-08-14T22:46:02.452Z,100533.31
2022-08-14T22:48:31.025Z,100527.94
2022-08-14T22:50:59.373Z,100535.00
2022-08-14T22:53:29.495Z,100529.63
2022-08-14T22:55:58.002Z,100538.72
2022-08-14T22:58:30.418Z,100527.94
2022-08-14T23:01:01.525Z,100495.84
2022-08-14T23:03:34.148Z,100521.81
2022-08-14T23:07:02.398Z,100521.50
2022-08-14T23:09:01.573Z,100540.38
2022-08-14T23:11:46.909Z,100540.38
2022-08-14T23:14:23.771Z,100531.31
2022-08-14T23:16:57.177Z,100456.38
2022-08-14T23:19:34.687Z,100512.31
2022-08-14T23:22:05.286Z,100460.16
2022-08-14T23:24:36.705Z,100517.38
2022-08-14T23:27:26.962Z,100520.88
2022-08-14T23:29:59.123Z,100518.19
2022-08-14T23:32:30.161Z,100472.31
2022-08-14T23:35:00.846Z,100498.78
2022-08-14T23:37:29.939Z,100457.78
2022-08-14T23:39:59.291Z,100515.50
2022-08-14T23:42:39.977Z,100517.19
2022-08-14T23:45:10.648Z,100506.75
2022-08-14T23:47:51.927Z,100506.75
2022-08-14T23:50:38.275Z,100492.22
2022-08-14T23:53:27.871Z,100489.53
2022-08-14T23:56:00.502Z,100500.34
2022-08-14T23:58:37.081Z,100504.06
